Nanping, China
Current Conditions -  °F | °C
As of 4:00 AM on Friday 19 Dec 2014 (Local Time) from ZSFZ Reporting Station
Overcast Overcast  
Wind Chill: 54°   Ceiling: 2900
Heat Index: 54°   Visibility: 6mi
Dew Point: 39°   Wind: 4mph
Humidity: 58%   Direction: 330°NNW
Pressure: 30.3"   Gusts: NA
Location:  26.63°N, 118.17°E
Report Text: ZSFZ 182000Z 33002MPS 280V040 9999 OVC029 12/04 Q1026 NOSIG
Loading
Personal Weather Stations






























Interactive Weather Map New forecast layout! Learn more

10-Day Weather Forecast

Advertisements
Track Severe Weather on mobile